Main page
METAR-TAF:

METAR-TAF

Airports :

Vilnius Airport

Vilnius, Lithuania

latitude: 54-38N, longitude: 025-06E, elevation: 162 m

Current weather observation

The report was made 5 minutes ago, at 22:50 UTC
Wind 9 kt from the North/Northeast
Temperature 8°C
Humidity 66%
Pressure 1015 hPa
Visibility 10 km or more
no clouds below 1500 m and no cumulonimbus

METAR: EYVI 012250Z 02009KT CAVOK 08/02 Q1015 NOSIG

Time: 01:55 (22:55 UTC)

Forecast

The report was made 5 hours and 55 minutes ago, at 17:00 UTC
Forecast valid from 01 at 18 UTC to 02 at 18 UTC
Wind 8 kt from the North
Visibility: 9000 m
Becoming
from 02 at 06 UTC to 02 at 07 UTC
Wind 18 kt from the North with gusts up to 28 kt
Becoming
from 02 at 12 UTC to 02 at 14 UTC
Scattered clouds at a height of 4000 ft, Cumulonimbus.
Broken clouds at a height of 4500 ft
Becoming
from 02 at 14 UTC to 02 at 16 UTC
Wind 8 kt from the East/Northeast

TAF: EYVI 011700Z 0118/0218 01008KT 9000 NSC BECMG 0206/0207 01018G28KT BECMG 0212/0214 SCT040CB BKN045 BECMG 0214/0216 07008KT

Weather observations and forecasts of more than 4000 airports (METAR and TAF reports).

The available stations are represented by yellow and red dots on the map.

Hover mouse over dot to see the name of the station.

Then click to see weather observations and forecasts.

To change the map : click on the green buttons with a black cross to zoom in, on the green button with a dash to zoom out, or on the green arrows for adjacent maps.


METAR-TAF: